Time;durP1;ratioP1;P1;durP2;ratioP2;P2;SDS_P1;SDS_P2;PMS_P1;PMS_P2;Temp;Humidity;BMP_temperature;BMP_pressure;BME280_temperature;BME280_humidity;BME280_pressure;Samples;Min_cycle;Max_cycle;Signal;HPM_P1;HPM_P2
2021/10/05 00:01:00;;;;;;;1.65;1.05;;;22.20;58.80;;;;;;5002482;28;20040;-60
2021/10/05 00:03:26;;;;;;;2.33;1.05;;;22.20;58.80;;;;;;5003497;28;20026;-59
2021/10/05 00:05:52;;;;;;;2.30;1.10;;;22.20;59.40;;;;;;5002534;28;20026;-59
2021/10/05 00:08:17;;;;;;;2.58;1.40;;;22.20;58.80;;;;;;5007893;28;20041;-59
2021/10/05 00:10:43;;;;;;;4.18;1.20;;;22.20;58.70;;;;;;5012718;28;20876;-59
2021/10/05 00:13:09;;;;;;;2.17;0.80;;;22.20;58.70;;;;;;5012812;28;20056;-59
2021/10/05 00:15:35;;;;;;;1.67;1.20;;;22.20;58.70;;;;;;5012513;28;20448;-59
2021/10/05 00:18:00;;;;;;;2.20;1.10;;;22.20;58.80;;;;;;5012199;28;20045;-60
2021/10/05 00:20:26;;;;;;;2.45;1.25;;;22.20;58.70;;;;;;5012137;28;20040;-59
2021/10/05 00:22:52;;;;;;;1.67;1.02;;;22.20;58.80;;;;;;5012479;28;20038;-60
2021/10/05 00:25:17;;;;;;;1.83;1.35;;;22.20;58.70;;;;;;5013013;28;20048;-59
2021/10/05 00:27:43;;;;;;;4.10;1.25;;;22.10;58.70;;;;;;5011953;28;20033;-59
2021/10/05 00:30:09;;;;;;;2.03;1.05;;;22.20;58.80;;;;;;5012336;28;20384;-59
2021/10/05 00:32:35;;;;;;;1.85;1.20;;;22.20;58.70;;;;;;5012021;28;20025;-60
2021/10/05 00:35:01;;;;;;;1.50;1.20;;;22.20;58.80;;;;;;5011917;28;20032;-59
2021/10/05 00:37:26;;;;;;;1.30;0.90;;;22.20;58.80;;;;;;5011753;28;20032;-59
2021/10/05 00:39:52;;;;;;;1.55;1.30;;;22.20;58.80;;;;;;5012847;28;20454;-59
2021/10/05 00:42:18;;;;;;;1.67;1.30;;;22.20;58.80;;;;;;5012632;28;20533;-59
2021/10/05 00:44:44;;;;;;;1.10;1.00;;;22.20;58.80;;;;;;5011771;28;20022;-59
2021/10/05 00:47:15;;;;;;;1.48;0.98;;;22.20;58.70;;;;;;5012512;28;20022;-59
2021/10/05 00:49:44;;;;;;;1.80;1.20;;;22.20;58.80;;;;;;5011788;28;20037;-59
2021/10/05 00:52:11;;;;;;;1.48;1.02;;;22.20;58.80;;;;;;5012159;28;20502;-59
2021/10/05 00:54:39;;;;;;;1.00;0.90;;;22.20;58.80;;;;;;5010848;28;20049;-60
2021/10/05 00:57:06;;;;;;;1.77;1.38;;;22.10;58.70;;;;;;5011692;28;20036;-59
2021/10/05 00:59:33;;;;;;;1.98;1.40;;;22.10;58.80;;;;;;5010697;28;20034;-60
2021/10/05 01:01:59;;;;;;;1.95;1.40;;;22.20;58.80;;;;;;5011794;28;20041;-60
2021/10/05 01:04:25;;;;;;;1.25;0.98;;;22.10;58.70;;;;;;5011525;28;20090;-59
2021/10/05 01:06:59;;;;;;;3.42;1.42;;;22.10;58.80;;;;;;5011844;28;20095;-59
2021/10/05 01:09:25;;;;;;;2.20;1.10;;;22.10;58.70;;;;;;5009624;28;20068;-59
2021/10/05 01:11:52;;;;;;;2.00;1.60;;;22.10;58.80;;;;;;5011706;28;20061;-59
2021/10/05 01:14:18;;;;;;;1.88;1.10;;;22.10;59.40;;;;;;5012229;28;20077;-59
2021/10/05 01:16:44;;;;;;;1.55;1.10;;;22.10;58.80;;;;;;5011469;28;20613;-60
2021/10/05 01:19:10;;;;;;;1.67;1.08;;;22.10;58.80;;;;;;5011354;28;20026;-59
2021/10/05 01:21:36;;;;;;;2.67;1.23;;;22.10;58.80;;;;;;5011783;28;20383;-59
2021/10/05 01:24:12;;;;;;;1.60;1.10;;;22.10;58.80;;;;;;5011722;28;20490;-59
2021/10/05 01:26:39;;;;;;;1.38;1.08;;;22.10;58.80;;;;;;5009706;28;20034;-59
2021/10/05 01:29:07;;;;;;;1.73;1.40;;;22.10;58.80;;;;;;5011774;28;20030;-59
2021/10/05 01:31:38;;;;;;;1.75;1.35;;;22.10;58.80;;;;;;5011124;28;20026;-59
2021/10/05 01:34:04;;;;;;;2.45;1.17;;;22.10;58.80;;;;;;5011883;28;20030;-59
2021/10/05 01:36:30;;;;;;;2.38;1.30;;;22.10;58.70;;;;;;5010901;28;20029;-59
2021/10/05 01:38:56;;;;;;;1.95;1.30;;;22.10;58.70;;;;;;5011170;28;20052;-60
2021/10/05 01:41:22;;;;;;;1.60;1.25;;;22.10;58.80;;;;;;5012059;28;20026;-59
2021/10/05 01:43:48;;;;;;;1.08;0.98;;;22.10;58.70;;;;;;5010984;28;20108;-59
2021/10/05 01:46:14;;;;;;;1.35;1.15;;;22.10;58.70;;;;;;5011839;28;20467;-60
2021/10/05 01:48:43;;;;;;;2.30;1.60;;;22.10;58.80;;;;;;5010809;28;20064;-59
2021/10/05 01:51:11;;;;;;;1.83;1.33;;;22.10;58.80;;;;;;5011923;28;20386;-59
2021/10/05 01:53:38;;;;;;;2.40;1.50;;;22.10;58.80;;;;;;5010997;28;20041;-59
2021/10/05 01:56:05;;;;;;;3.58;1.25;;;22.10;58.80;;;;;;5009490;28;20479;-59
2021/10/05 01:58:31;;;;;;;2.70;1.38;;;22.10;58.80;;;;;;5008358;28;20522;-59
2021/10/05 02:00:57;;;;;;;3.92;2.03;;;22.10;58.80;;;;;;5012169;28;20034;-59
2021/10/05 02:03:23;;;;;;;2.63;1.20;;;22.10;58.80;;;;;;5011716;28;20026;-59
2021/10/05 02:05:48;;;;;;;1.98;1.30;;;22.10;58.80;;;;;;5010322;28;20113;-59
2021/10/05 02:08:14;;;;;;;1.80;1.42;;;22.10;58.80;;;;;;5010700;28;20038;-59
2021/10/05 02:10:40;;;;;;;2.28;1.50;;;22.10;58.80;;;;;;5012902;28;20550;-59
2021/10/05 02:13:06;;;;;;;2.72;1.58;;;22.10;58.80;;;;;;5014781;28;20037;-59
2021/10/05 02:15:33;;;;;;;2.55;1.70;;;22.10;58.80;;;;;;5011727;28;20866;-59
2021/10/05 02:17:58;;;;;;;1.60;1.30;;;22.10;58.70;;;;;;5015167;28;20026;-59
2021/10/05 02:20:24;;;;;;;2.33;1.63;;;22.10;58.80;;;;;;5015264;28;20030;-59
2021/10/05 02:22:51;;;;;;;1.80;1.10;;;22.10;58.80;;;;;;5015033;28;20033;-60
2021/10/05 02:25:17;;;;;;;1.45;1.23;;;22.10;58.80;;;;;;5015349;28;20041;-60
2021/10/05 02:27:43;;;;;;;1.60;1.30;;;22.10;58.80;;;;;;5014221;28;20022;-59
2021/10/05 02:30:09;;;;;;;1.60;1.30;;;22.10;58.80;;;;;;5015395;28;20041;-59
2021/10/05 02:32:35;;;;;;;1.73;1.50;;;22.10;58.70;;;;;;5014355;28;20038;-59
2021/10/05 02:35:01;;;;;;;1.50;1.20;;;22.10;58.80;;;;;;5011693;28;20052;-59
2021/10/05 02:37:31;;;;;;;2.50;1.55;;;22.10;58.80;;;;;;5014110;28;20048;-59
2021/10/05 02:39:58;;;;;;;1.75;1.40;;;22.10;59.40;;;;;;5014549;28;20037;-59
2021/10/05 02:42:25;;;;;;;2.63;1.58;;;22.10;58.80;;;;;;5014762;28;20430;-59
2021/10/05 02:44:52;;;;;;;2.70;1.58;;;22.10;58.70;;;;;;5014105;28;20030;-59
2021/10/05 02:47:18;;;;;;;1.30;1.17;;;22.10;58.70;;;;;;5014784;28;20037;-60
2021/10/05 02:49:44;;;;;;;2.05;1.50;;;22.10;58.80;;;;;;5014084;28;20463;-59
2021/10/05 02:52:14;;;;;;;1.80;1.40;;;22.10;58.80;;;;;;5012041;28;20030;-59
2021/10/05 02:54:40;;;;;;;2.85;1.55;;;22.10;58.80;;;;;;5012546;28;21696;-59
2021/10/05 02:57:06;;;;;;;2.55;1.30;;;22.10;58.80;;;;;;5014595;28;20355;-59
2021/10/05 02:59:32;;;;;;;4.10;1.50;;;22.10;59.40;;;;;;5013463;28;20080;-59
2021/10/05 03:01:58;;;;;;;1.42;1.05;;;22.10;58.80;;;;;;5014688;28;20030;-59
2021/10/05 03:04:25;;;;;;;1.48;1.38;;;22.10;58.80;;;;;;5014557;28;20040;-59
2021/10/05 03:06:50;;;;;;;1.85;1.50;;;22.10;58.80;;;;;;5013061;28;20045;-60
2021/10/05 03:09:16;;;;;;;1.45;1.35;;;22.10;58.80;;;;;;5013679;28;20046;-59
2021/10/05 03:11:42;;;;;;;1.63;1.23;;;22.10;58.70;;;;;;5012869;28;20029;-59
2021/10/05 03:14:07;;;;;;;1.85;1.50;;;22.10;58.70;;;;;;5013773;28;20116;-60
2021/10/05 03:16:33;;;;;;;1.77;1.38;;;22.10;58.80;;;;;;5012958;28;20109;-59
2021/10/05 03:18:59;;;;;;;1.85;1.35;;;22.10;58.80;;;;;;5012906;28;20412;-59
2021/10/05 03:21:25;;;;;;;3.15;1.60;;;22.10;58.70;;;;;;5012097;28;20034;-59
2021/10/05 03:23:51;;;;;;;2.55;1.40;;;22.10;58.80;;;;;;5012529;28;20048;-59
2021/10/05 03:26:16;;;;;;;1.60;1.27;;;22.10;58.70;;;;;;5012048;28;20382;-59
2021/10/05 03:28:43;;;;;;;2.55;1.30;;;22.10;58.80;;;;;;5013371;28;20037;-59
2021/10/05 03:31:11;;;;;;;1.52;1.20;;;22.10;58.80;;;;;;5014077;28;20022;-59
2021/10/05 03:33:38;;;;;;;2.72;1.33;;;22.00;58.70;;;;;;4993555;28;20038;-59
2021/10/05 03:36:04;;;;;;;1.38;1.27;;;22.00;58.70;;;;;;5007969;28;20042;-59
2021/10/05 03:38:30;;;;;;;2.80;1.35;;;22.10;58.70;;;;;;5012941;28;20034;-59
2021/10/05 03:40:56;;;;;;;1.75;1.20;;;22.10;58.70;;;;;;5012305;28;20040;-60
2021/10/05 03:43:23;;;;;;;1.30;1.13;;;22.10;58.70;;;;;;5013911;28;20026;-59
2021/10/05 03:45:50;;;;;;;1.70;1.23;;;22.10;58.70;;;;;;5012580;28;20662;-59
2021/10/05 03:48:19;;;;;;;1.73;1.48;;;22.10;58.70;;;;;;5013329;28;20352;-59
2021/10/05 03:50:45;;;;;;;2.17;1.52;;;22.10;58.70;;;;;;5012276;28;20112;-59
2021/10/05 03:53:17;;;;;;;1.40;0.90;;;22.10;58.70;;;;;;5013116;28;20105;-59
2021/10/05 03:55:57;;;;;;;1.35;1.17;;;22.10;58.70;;;;;;5011860;28;20463;-59
2021/10/05 03:58:24;;;;;;;1.33;1.15;;;22.10;58.70;;;;;;5012290;28;20452;-59
2021/10/05 04:00:50;;;;;;;1.35;1.20;;;22.10;58.70;;;;;;5012544;28;20061;-59
2021/10/05 04:03:16;;;;;;;1.40;1.30;;;22.00;58.70;;;;;;5013461;28;20079;-59
2021/10/05 04:05:42;;;;;;;1.42;1.20;;;22.10;58.80;;;;;;5012180;28;20430;-59
2021/10/05 04:08:09;;;;;;;1.95;1.30;;;22.00;58.70;;;;;;5012762;28;20033;-59
2021/10/05 04:10:36;;;;;;;1.83;1.45;;;22.10;58.70;;;;;;5012546;28;20385;-59
2021/10/05 04:13:01;;;;;;;1.20;0.90;;;22.10;58.70;;;;;;5013059;28;20462;-59
2021/10/05 04:15:28;;;;;;;2.00;1.33;;;22.10;58.70;;;;;;5013285;28;20042;-59
2021/10/05 04:17:53;;;;;;;1.40;1.20;;;22.10;58.70;;;;;;5012187;28;20037;-59
2021/10/05 04:20:19;;;;;;;1.25;1.15;;;22.10;58.70;;;;;;5013018;28;20028;-59
2021/10/05 04:22:45;;;;;;;1.38;1.20;;;22.10;58.70;;;;;;5012182;28;20483;-59
2021/10/05 04:25:11;;;;;;;1.95;1.48;;;22.10;58.70;;;;;;5012934;28;20026;-59
2021/10/05 04:27:38;;;;;;;1.70;1.38;;;22.10;58.70;;;;;;5006954;28;20461;-59
2021/10/05 04:30:10;;;;;;;1.10;1.00;;;22.00;58.70;;;;;;5012884;28;20057;-59
2021/10/05 04:32:36;;;;;;;1.67;1.15;;;22.00;58.70;;;;;;5011806;28;20030;-59
2021/10/05 04:35:02;;;;;;;1.20;0.95;;;22.00;58.70;;;;;;5012897;28;20471;-59
2021/10/05 04:37:28;;;;;;;1.50;1.17;;;22.10;58.70;;;;;;5011046;28;20451;-59
2021/10/05 04:39:54;;;;;;;1.75;1.13;;;22.00;58.70;;;;;;5011058;28;20120;-59
2021/10/05 04:42:19;;;;;;;1.25;1.15;;;22.00;58.70;;;;;;5012615;28;20058;-59
2021/10/05 04:44:45;;;;;;;1.95;1.33;;;22.00;58.70;;;;;;5012245;28;20076;-59
2021/10/05 04:47:11;;;;;;;1.15;0.90;;;22.00;58.70;;;;;;5012079;28;20026;-60
2021/10/05 04:49:37;;;;;;;1.83;1.00;;;22.00;58.70;;;;;;5011982;28;20037;-60
2021/10/05 04:52:03;;;;;;;1.42;1.20;;;22.00;58.80;;;;;;5012441;28;20391;-59
2021/10/05 04:54:30;;;;;;;1.50;1.20;;;22.00;58.70;;;;;;5012188;28;20168;-59
2021/10/05 04:56:55;;;;;;;2.20;1.20;;;22.00;58.70;;;;;;5011863;28;20060;-59
2021/10/05 04:59:21;;;;;;;1.20;0.95;;;22.00;58.70;;;;;;5012011;28;20029;-59
2021/10/05 05:01:47;;;;;;;0.95;0.90;;;22.00;58.70;;;;;;5011474;28;20072;-60
2021/10/05 05:04:13;;;;;;;1.70;1.30;;;22.00;58.70;;;;;;5011897;28;20038;-59
2021/10/05 05:06:39;;;;;;;1.20;1.10;;;22.00;58.80;;;;;;5010618;28;20046;-59
2021/10/05 05:09:06;;;;;;;1.20;0.98;;;22.00;58.70;;;;;;5011531;28;20041;-59
2021/10/05 05:11:33;;;;;;;1.10;1.00;;;22.10;58.70;;;;;;5010909;28;20042;-60
2021/10/05 05:14:05;;;;;;;1.92;1.17;;;22.10;58.70;;;;;;5011379;28;20463;-59
2021/10/05 05:16:31;;;;;;;2.78;1.13;;;22.10;58.80;;;;;;5012205;28;20062;-60
2021/10/05 05:18:57;;;;;;;2.60;1.35;;;22.10;58.80;;;;;;5011310;28;20029;-58
2021/10/05 05:21:23;;;;;;;3.58;1.10;;;22.10;58.80;;;;;;5011136;28;20037;-63
2021/10/05 05:23:49;;;;;;;4.75;1.08;;;22.10;58.80;;;;;;5010381;28;20022;-62
2021/10/05 05:26:15;;;;;;;1.92;0.88;;;22.20;59.00;;;;;;5011620;28;20037;-63
2021/10/05 05:28:40;;;;;;;1.48;0.95;;;22.30;59.90;;;;;;5011113;28;20034;-63
2021/10/05 05:31:06;;;;;;;2.60;0.98;;;22.30;60.90;;;;;;5011900;28;20036;-63
2021/10/05 05:33:32;;;;;;;4.03;1.70;;;22.30;60.00;;;;;;5011814;28;20038;-60
2021/10/05 05:35:57;;;;;;;3.10;0.90;;;22.30;60.20;;;;;;5010987;28;20030;-61
2021/10/05 05:38:23;;;;;;;3.15;0.80;;;22.30;60.30;;;;;;5011612;28;20037;-58
2021/10/05 05:40:50;;;;;;;7.38;2.15;;;22.30;61.00;;;;;;5010700;28;20045;-59
2021/10/05 05:43:16;;;;;;;5.50;1.52;;;22.30;60.90;;;;;;5011866;28;20459;-62
2021/10/05 05:45:41;;;;;;;4.07;1.70;;;22.30;60.80;;;;;;5012707;28;20036;-61
2021/10/05 05:48:07;;;;;;;5.25;3.25;;;22.30;61.10;;;;;;5015187;28;20089;-63
2021/10/05 05:50:33;;;;;;;6.50;2.17;;;22.20;60.00;;;;;;5015545;28;20030;-61
2021/10/05 05:52:59;;;;;;;4.88;2.88;;;22.20;60.10;;;;;;5014591;28;20467;-63
2021/10/05 05:55:25;;;;;;;5.70;2.78;;;22.20;59.30;;;;;;5015168;28;20034;-62
2021/10/05 05:57:51;;;;;;;3.83;2.20;;;22.20;60.00;;;;;;5014614;28;20026;-61
2021/10/05 06:00:18;;;;;;;6.65;4.00;;;22.20;60.20;;;;;;5015793;28;20038;-61
2021/10/05 06:02:44;;;;;;;7.47;3.55;;;22.20;59.50;;;;;;5014689;28;20110;-60
2021/10/05 06:05:13;;;;;;;7.57;3.75;;;22.10;59.60;;;;;;5015599;28;20447;-61
2021/10/05 06:07:39;;;;;;;4.65;3.78;;;22.10;58.60;;;;;;5014127;28;20542;-61
2021/10/05 06:10:06;;;;;;;5.72;3.85;;;22.10;58.40;;;;;;5015687;28;20190;-61
2021/10/05 06:12:39;;;;;;;7.10;3.63;;;22.10;58.20;;;;;;5015042;28;20087;-62
2021/10/05 06:15:12;;;;;;;5.45;4.30;;;22.00;57.80;;;;;;5015168;28;20053;-63
2021/10/05 06:17:42;;;;;;;6.63;4.60;;;22.00;57.60;;;;;;5004070;28;20406;-61
2021/10/05 06:20:09;;;;;;;6.00;4.20;;;22.00;57.50;;;;;;5013080;28;20030;-63
2021/10/05 06:22:36;;;;;;;6.88;4.80;;;21.90;58.00;;;;;;5010408;28;20102;-62
2021/10/05 06:25:04;;;;;;;7.65;4.43;;;21.90;56.80;;;;;;5015050;28;20030;-62
2021/10/05 06:27:29;;;;;;;5.85;5.03;;;21.90;56.50;;;;;;5015617;28;20101;-63
2021/10/05 06:29:56;;;;;;;6.80;4.65;;;21.90;56.60;;;;;;5014221;28;20112;-63
2021/10/05 06:32:22;;;;;;;5.47;4.68;;;21.90;56.70;;;;;;5014869;28;20034;-62
2021/10/05 06:34:48;;;;;;;5.78;4.40;;;21.90;56.80;;;;;;5013513;28;20045;-63
2021/10/05 06:37:13;;;;;;;6.93;5.05;;;21.90;56.60;;;;;;5013912;28;20034;-63
2021/10/05 06:39:39;;;;;;;6.32;4.70;;;21.90;56.60;;;;;;5013815;28;20041;-62
2021/10/05 06:42:04;;;;;;;4.90;4.40;;;21.90;56.50;;;;;;5014727;28;20049;-63
2021/10/05 06:44:30;;;;;;;5.55;4.00;;;21.90;56.50;;;;;;5014587;28;20037;-64
2021/10/05 06:46:56;;;;;;;5.60;4.85;;;21.90;56.50;;;;;;5012092;28;20467;-63
2021/10/05 06:49:21;;;;;;;6.90;4.00;;;21.90;56.50;;;;;;5013928;28;20029;-62
2021/10/05 06:51:47;;;;;;;5.38;4.00;;;21.90;56.70;;;;;;5013897;28;20029;-62
2021/10/05 06:54:12;;;;;;;5.43;3.97;;;21.90;56.60;;;;;;5014663;28;20038;-62
2021/10/05 06:56:38;;;;;;;5.00;3.88;;;21.90;56.80;;;;;;5013716;28;20018;-61
2021/10/05 06:59:04;;;;;;;4.22;3.45;;;21.80;56.90;;;;;;5013194;28;20391;-63
2021/10/05 07:01:29;;;;;;;4.63;3.53;;;21.90;56.60;;;;;;5013638;28;20463;-63
2021/10/05 07:03:55;;;;;;;4.22;3.42;;;21.80;56.60;;;;;;5012299;28;20202;-62
2021/10/05 07:06:22;;;;;;;6.25;3.83;;;21.80;56.70;;;;;;5013146;28;20053;-63
2021/10/05 07:08:47;;;;;;;4.13;3.53;;;21.90;56.60;;;;;;5012549;28;20038;-63
2021/10/05 07:11:13;;;;;;;5.85;3.40;;;21.80;56.70;;;;;;5012960;28;20096;-63
2021/10/05 07:13:38;;;;;;;4.13;3.33;;;21.80;56.80;;;;;;5013109;28;20036;-61
2021/10/05 07:16:04;;;;;;;3.45;3.05;;;21.80;57.10;;;;;;5014209;28;20383;-63
2021/10/05 07:18:32;;;;;;;5.18;3.20;;;21.80;57.10;;;;;;5013487;28;20037;-62
2021/10/05 07:20:59;;;;;;;4.28;3.22;;;21.80;57.20;;;;;;5011862;28;20062;-62
2021/10/05 07:23:25;;;;;;;3.88;3.25;;;21.80;57.10;;;;;;5009552;28;20398;-63
2021/10/05 07:25:51;;;;;;;2.92;2.60;;;21.80;57.00;;;;;;5012944;28;20030;-62
2021/10/05 07:28:16;;;;;;;3.83;2.85;;;21.80;57.00;;;;;;5005653;28;20117;-62
2021/10/05 07:30:43;;;;;;;3.88;3.00;;;21.80;56.90;;;;;;5012588;28;20065;-62
2021/10/05 07:33:09;;;;;;;3.20;2.20;;;21.80;57.10;;;;;;5013256;28;20462;-64
2021/10/05 07:35:35;;;;;;;4.00;3.10;;;21.80;57.50;;;;;;5013160;28;20053;-63
2021/10/05 07:38:02;;;;;;;2.88;2.35;;;21.80;57.50;;;;;;5012540;28;20042;-63
2021/10/05 07:40:29;;;;;;;4.82;2.88;;;21.80;57.10;;;;;;5013276;28;20061;-63
2021/10/05 07:42:56;;;;;;;3.58;2.50;;;21.80;57.50;;;;;;5012315;28;20913;-63
2021/10/05 07:45:24;;;;;;;6.82;3.20;;;21.80;57.40;;;;;;5013637;28;20048;-63
2021/10/05 07:47:50;;;;;;;3.03;2.65;;;21.80;57.70;;;;;;5012375;28;20045;-62
2021/10/05 07:50:15;;;;;;;2.58;2.30;;;21.80;57.80;;;;;;5013467;28;20034;-63
2021/10/05 07:52:41;;;;;;;4.00;3.20;;;21.80;57.50;;;;;;5011961;28;20032;-62
2021/10/05 07:55:07;;;;;;;3.22;2.63;;;21.80;57.30;;;;;;5013437;28;20103;-63
2021/10/05 07:57:33;;;;;;;3.63;2.97;;;21.80;57.30;;;;;;5012539;28;20029;-62
2021/10/05 07:59:59;;;;;;;3.15;2.78;;;21.80;57.30;;;;;;5011822;28;20602;-63
2021/10/05 08:02:24;;;;;;;5.00;3.28;;;21.80;57.10;;;;;;5012950;28;20514;-63
2021/10/05 08:04:50;;;;;;;3.83;2.70;;;21.80;57.20;;;;;;5012394;28;20117;-62
2021/10/05 08:07:16;;;;;;;3.10;2.63;;;21.80;57.60;;;;;;5011293;28;20054;-63
2021/10/05 08:09:41;;;;;;;3.15;2.75;;;21.80;57.50;;;;;;5011586;28;20030;-61
2021/10/05 08:12:07;;;;;;;4.30;2.75;;;21.80;57.30;;;;;;5013252;28;20463;-62
2021/10/05 08:14:33;;;;;;;6.13;2.05;;;21.70;57.60;;;;;;5012812;28;20046;-62
2021/10/05 08:17:00;;;;;;;2.40;1.58;;;21.80;57.80;;;;;;5011842;28;20018;-62
2021/10/05 08:19:25;;;;;;;4.18;1.30;;;21.80;57.80;;;;;;5012231;28;20034;-62
2021/10/05 08:21:52;;;;;;;5.65;1.25;;;21.80;57.80;;;;;;5011959;28;20048;-62
2021/10/05 08:24:19;;;;;;;1.85;0.90;;;21.90;57.90;;;;;;5013066;28;20033;-62
2021/10/05 08:26:45;;;;;;;0.52;0.45;;;21.90;58.00;;;;;;5012683;28;20144;-61
2021/10/05 08:29:11;;;;;;;1.10;0.77;;;21.90;58.20;;;;;;5012828;28;20038;-62
2021/10/05 08:31:36;;;;;;;2.92;0.65;;;21.90;58.40;;;;;;5012928;28;20105;-62
2021/10/05 08:34:02;;;;;;;1.38;0.60;;;21.90;58.70;;;;;;5011906;28;20360;-62
2021/10/05 08:36:28;;;;;;;2.10;0.68;;;21.90;58.40;;;;;;5012426;28;20112;-62
2021/10/05 08:38:53;;;;;;;0.88;0.65;;;21.90;59.30;;;;;;5011958;28;20120;-61
2021/10/05 08:41:19;;;;;;;1.63;0.70;;;21.90;58.70;;;;;;5012621;28;20036;-62
2021/10/05 08:43:45;;;;;;;1.17;0.68;;;21.90;58.80;;;;;;5011834;28;20037;-61
2021/10/05 08:46:11;;;;;;;2.97;0.80;;;21.90;58.90;;;;;;5011780;28;20026;-62
2021/10/05 08:48:37;;;;;;;1.23;0.70;;;21.90;58.90;;;;;;5012510;28;20048;-62
2021/10/05 08:51:05;;;;;;;1.98;1.00;;;22.00;59.00;;;;;;5011808;28;20042;-62
2021/10/05 08:53:37;;;;;;;1.65;0.65;;;21.90;59.00;;;;;;5011914;28;20544;-62
2021/10/05 08:56:04;;;;;;;;;;;22.00;59.00;;;;;;5012263;28;20087;-62
2021/10/05 08:58:29;;;;;;;0.70;0.60;;;21.90;59.00;;;;;;5012159;28;19905;-62
2021/10/05 09:01:09;;;;;;;0.63;0.52;;;21.90;59.10;;;;;;5011428;28;20036;-61
2021/10/05 09:03:35;;;;;;;3.97;0.60;;;22.00;59.20;;;;;;4997442;28;20434;-62
2021/10/05 09:06:13;;;;;;;2.75;0.65;;;22.00;59.20;;;;;;5011177;28;20054;-62
2021/10/05 09:08:40;;;;;;;1.55;0.70;;;21.90;59.20;;;;;;5010360;28;20041;-62
2021/10/05 09:11:08;;;;;;;0.68;0.50;;;21.90;59.20;;;;;;5011593;28;20177;-62
2021/10/05 09:13:38;;;;;;;0.52;0.50;;;21.90;59.20;;;;;;5011822;28;20042;-62
2021/10/05 09:16:25;;;;;;;1.38;0.50;;;21.90;59.20;;;;;;5010811;28;20029;-62
2021/10/05 09:18:54;;;;;;;0.57;0.43;;;22.00;59.30;;;;;;5010496;28;20030;-62
2021/10/05 09:21:21;;;;;;;1.33;0.70;;;22.00;59.30;;;;;;5010931;28;20523;-62
2021/10/05 09:24:27;;;;;;;0.60;0.47;;;21.90;59.30;;;;;;5010991;28;20133;-61
2021/10/05 09:26:55;;;;;;;0.95;0.30;;;21.90;59.30;;;;;;5000678;28;20029;-62
2021/10/05 09:29:29;;;;;;;0.73;0.57;;;21.90;59.30;;;;;;5010541;28;20457;-62
2021/10/05 09:32:07;;;;;;;0.95;0.60;;;21.90;59.30;;;;;;5010767;28;20056;-62
2021/10/05 09:34:54;;;;;;;2.35;0.40;;;21.90;59.30;;;;;;5008945;28;20042;-62
2021/10/05 09:37:24;;;;;;;0.80;0.60;;;21.90;59.30;;;;;;5012005;28;20416;-62
2021/10/05 09:39:50;;;;;;;1.75;0.57;;;22.00;59.30;;;;;;5011069;28;20451;-62
2021/10/05 09:42:36;;;;;;;0.70;0.50;;;22.00;59.40;;;;;;5003546;28;20061;-61
2021/10/05 09:45:03;;;;;;;0.75;0.50;;;22.00;59.50;;;;;;5008775;28;20030;-61
2021/10/05 09:47:50;;;;;;;0.80;0.43;;;22.00;59.50;;;;;;5012155;28;20443;-62
2021/10/05 09:50:17;;;;;;;1.33;0.70;;;22.00;59.40;;;;;;5011547;28;20076;-62
2021/10/05 09:52:52;;;;;;;1.83;0.45;;;22.00;59.40;;;;;;5010533;28;20041;-61
2021/10/05 09:55:21;;;;;;;0.60;0.52;;;22.00;59.40;;;;;;5011429;28;20037;-62
2021/10/05 09:57:47;;;;;;;1.35;0.55;;;22.00;59.40;;;;;;5010936;28;20034;-61
2021/10/05 10:00:14;;;;;;;0.82;0.43;;;21.90;59.40;;;;;;5011755;28;20030;-62
2021/10/05 10:02:42;;;;;;;0.57;0.45;;;22.00;59.50;;;;;;5011389;28;20060;-62
2021/10/05 10:05:22;;;;;;;0.77;0.65;;;22.00;59.50;;;;;;5011256;28;20080;-62
2021/10/05 10:07:53;;;;;;;0.82;0.60;;;22.00;59.50;;;;;;5010731;28;20088;-63
2021/10/05 10:10:24;;;;;;;1.23;0.45;;;22.00;60.10;;;;;;5011689;28;20034;-62
2021/10/05 10:13:12;;;;;;;1.23;0.50;;;21.90;59.30;;;;;;5010984;28;20117;-62
2021/10/05 10:15:40;;;;;;;0.68;0.50;;;21.90;60.00;;;;;;5017439;28;20521;-63
2021/10/05 10:18:07;;;;;;;4.57;0.63;;;21.90;59.60;;;;;;5009408;28;20030;-62
2021/10/05 10:20:35;;;;;;;3.00;0.50;;;22.00;59.30;;;;;;5002298;28;20018;-62
2021/10/05 10:23:00;;;;;;;1.27;0.80;;;22.00;59.50;;;;;;5011491;28;20038;-62
2021/10/05 10:25:33;;;;;;;1.13;0.40;;;22.00;59.70;;;;;;5012281;28;20462;-62
2021/10/05 10:28:12;;;;;;;1.02;0.63;;;22.00;59.70;;;;;;5010300;28;20056;-62
2021/10/05 10:30:51;;;;;;;1.38;0.57;;;22.00;59.70;;;;;;5011888;28;20392;-62
2021/10/05 10:33:19;;;;;;;1.00;0.50;;;22.00;59.70;;;;;;5014232;28;20133;-62
2021/10/05 10:35:53;;;;;;;1.70;0.60;;;22.00;59.80;;;;;;5014492;28;20048;-61
2021/10/05 10:38:31;;;;;;;0.50;0.50;;;22.00;59.80;;;;;;5015026;28;20113;-62
2021/10/05 10:40:58;;;;;;;0.68;0.40;;;22.00;59.70;;;;;;5014388;28;20105;-62
2021/10/05 10:43:27;;;;;;;1.23;0.60;;;22.00;59.70;;;;;;5014932;28;20038;-62
2021/10/05 10:45:57;;;;;;;4.15;0.55;;;22.00;59.80;;;;;;5014221;28;20029;-62
2021/10/05 10:48:31;;;;;;;0.63;0.40;;;22.00;59.70;;;;;;5013567;28;20117;-62
2021/10/05 10:51:01;;;;;;;0.73;0.40;;;22.00;59.70;;;;;;5012955;28;20026;-62
2021/10/05 10:53:37;;;;;;;1.23;0.40;;;22.00;59.70;;;;;;5013694;28;20041;-62
2021/10/05 10:56:03;;;;;;;1.83;0.40;;;22.00;59.70;;;;;;5014135;28;20495;-62
2021/10/05 10:58:42;;;;;;;0.70;0.40;;;22.00;59.80;;;;;;5015428;28;20046;-62
2021/10/05 11:01:09;;;;;;;0.93;0.50;;;22.00;59.80;;;;;;5014960;28;20080;-62
2021/10/05 11:03:35;;;;;;;0.50;0.40;;;22.00;59.80;;;;;;5014255;28;20107;-63
2021/10/05 11:06:10;;;;;;;0.70;0.50;;;22.00;60.00;;;;;;5013611;28;20046;-62
2021/10/05 11:08:36;;;;;;;0.70;0.40;;;22.00;59.90;;;;;;5014404;28;20065;-62
2021/10/05 11:11:03;;;;;;;0.68;0.50;;;22.00;59.90;;;;;;5013774;28;20435;-62
2021/10/05 11:13:29;;;;;;;1.00;0.50;;;22.00;59.90;;;;;;5014074;28;20482;-62
2021/10/05 11:15:55;;;;;;;0.85;0.50;;;22.00;59.90;;;;;;5012834;28;20084;-62
2021/10/05 11:18:24;;;;;;;1.23;0.57;;;22.00;59.90;;;;;;5013915;28;20084;-62
2021/10/05 11:20:59;;;;;;;0.90;0.43;;;22.00;59.90;;;;;;5013392;28;20057;-61
2021/10/05 11:23:26;;;;;;;1.20;0.40;;;22.00;59.90;;;;;;5013527;28;20034;-62
2021/10/05 11:25:57;;;;;;;0.60;0.60;;;22.00;59.90;;;;;;5012816;28;20081;-62
2021/10/05 11:28:28;;;;;;;1.30;0.50;;;22.00;59.90;;;;;;5014126;28;20025;-62
2021/10/05 11:31:00;;;;;;;0.50;0.40;;;22.00;60.00;;;;;;5013496;28;20068;-62
2021/10/05 11:33:32;;;;;;;0.60;0.50;;;22.00;60.00;;;;;;5013819;28;20132;-62
2021/10/05 11:36:09;;;;;;;0.40;0.40;;;22.00;60.00;;;;;;5013358;28;20042;-62
2021/10/05 11:38:39;;;;;;;1.45;0.52;;;22.00;60.00;;;;;;5013707;28;20068;-61
2021/10/05 11:41:05;;;;;;;3.67;1.65;;;22.00;60.00;;;;;;5012803;28;20121;-62
2021/10/05 11:43:37;;;;;;;2.05;0.38;;;22.00;60.00;;;;;;5012919;28;20125;-62
2021/10/05 11:46:33;;;;;;;0.68;0.40;;;22.00;60.00;;;;;;5013922;28;20076;-62
2021/10/05 11:48:59;;;;;;;1.65;0.40;;;22.00;60.00;;;;;;5009931;28;20046;-62
2021/10/05 11:51:27;;;;;;;0.70;0.60;;;22.00;60.00;;;;;;5013429;28;20068;-61
2021/10/05 11:53:55;;;;;;;0.40;0.30;;;22.00;60.10;;;;;;5012801;28;20033;-62
2021/10/05 11:56:22;;;;;;;0.30;0.30;;;22.00;60.10;;;;;;5013540;28;20036;-62
2021/10/05 11:58:54;;;;;;;0.30;0.30;;;22.00;60.00;;;;;;5013032;28;20137;-61
2021/10/05 12:01:27;;;;;;;0.40;0.40;;;22.00;60.00;;;;;;5017200;28;20025;-62
2021/10/05 12:03:57;;;;;;;1.25;0.57;;;22.00;60.00;;;;;;5012376;28;20057;-62
2021/10/05 12:06:30;;;;;;;0.32;0.22;;;22.00;60.00;;;;;;5013143;28;20049;-62
2021/10/05 12:08:56;;;;;;;0.30;0.30;;;22.00;60.00;;;;;;5012573;28;20076;-61
2021/10/05 12:11:32;;;;;;;1.50;0.60;;;22.00;59.90;;;;;;5013216;28;20033;-62
2021/10/05 12:14:02;;;;;;;1.73;1.17;;;22.00;60.00;;;;;;4993112;28;20030;-62
2021/10/05 12:16:28;;;;;;;0.45;0.30;;;22.00;59.90;;;;;;4997070;28;20406;-62
2021/10/05 12:18:58;;;;;;;0.40;0.30;;;22.00;59.90;;;;;;5011963;28;20033;-61
2021/10/05 12:21:24;;;;;;;0.38;0.35;;;22.00;60.50;;;;;;5013064;28;20316;-62
2021/10/05 12:23:56;;;;;;;3.42;0.47;;;22.00;59.90;;;;;;5012262;28;20092;-61
2021/10/05 12:26:22;;;;;;;0.60;0.40;;;22.00;59.90;;;;;;5012281;28;20383;-61
2021/10/05 12:29:00;;;;;;;2.85;0.38;;;22.00;59.80;;;;;;5012376;28;20026;-61
2021/10/05 12:31:28;;;;;;;0.73;0.40;;;22.00;59.80;;;;;;5012088;28;20040;-62
2021/10/05 12:34:14;;;;;;;0.47;0.30;;;22.00;59.80;;;;;;5010927;28;20062;-61
2021/10/05 12:36:39;;;;;;;0.43;0.30;;;22.00;59.70;;;;;;5011498;28;20046;-62
2021/10/05 12:39:15;;;;;;;0.77;0.50;;;22.00;59.70;;;;;;5011762;28;20559;-62
2021/10/05 12:41:42;;;;;;;0.63;0.32;;;22.00;59.80;;;;;;5012494;28;20025;-62
2021/10/05 12:44:18;;;;;;;0.30;0.30;;;22.00;59.70;;;;;;5011995;28;20096;-62
2021/10/05 12:46:59;;;;;;;0.73;0.30;;;22.00;59.70;;;;;;5012479;28;20482;-61
2021/10/05 12:49:25;;;;;;;1.48;0.30;;;22.00;59.70;;;;;;5012326;28;20079;-62
2021/10/05 12:51:53;;;;;;;0.73;0.47;;;22.00;59.70;;;;;;5011611;28;20029;-61